sensor_id;sensor_type;location;lat;lon;timestamp;P1;durP1;ratioP1;P2;durP2;ratioP2
2868;SDS011;1442;47.448;8.582;2023-03-20T00:02:18;4.75;;;3.63;;
2868;SDS011;1442;47.448;8.582;2023-03-20T00:04:47;8.68;;;5.10;;
2868;SDS011;1442;47.448;8.582;2023-03-20T00:07:14;6.20;;;5.18;;
2868;SDS011;1442;47.448;8.582;2023-03-20T00:09:41;6.80;;;5.65;;
2868;SDS011;1442;47.448;8.582;2023-03-20T00:12:09;8.18;;;5.57;;
2868;SDS011;1442;47.448;8.582;2023-03-20T00:14:36;6.93;;;4.68;;
2868;SDS011;1442;47.448;8.582;2023-03-20T00:17:03;6.75;;;5.00;;
2868;SDS011;1442;47.448;8.582;2023-03-20T00:19:33;5.82;;;4.90;;
2868;SDS011;1442;47.448;8.582;2023-03-20T00:22:03;8.27;;;5.15;;
2868;SDS011;1442;47.448;8.582;2023-03-20T00:24:30;6.97;;;5.32;;
2868;SDS011;1442;47.448;8.582;2023-03-20T00:26:57;8.80;;;5.47;;
2868;SDS011;1442;47.448;8.582;2023-03-20T00:29:27;5.63;;;4.85;;
2868;SDS011;1442;47.448;8.582;2023-03-20T00:31:55;7.25;;;5.53;;
2868;SDS011;1442;47.448;8.582;2023-03-20T00:34:22;9.52;;;5.97;;
2868;SDS011;1442;47.448;8.582;2023-03-20T00:36:53;7.78;;;5.75;;
2868;SDS011;1442;47.448;8.582;2023-03-20T00:39:21;7.47;;;6.05;;
2868;SDS011;1442;47.448;8.582;2023-03-20T00:41:49;8.02;;;5.25;;
2868;SDS011;1442;47.448;8.582;2023-03-20T00:44:21;6.00;;;5.40;;
2868;SDS011;1442;47.448;8.582;2023-03-20T00:46:49;6.80;;;5.78;;
2868;SDS011;1442;47.448;8.582;2023-03-20T00:49:18;7.68;;;6.35;;
2868;SDS011;1442;47.448;8.582;2023-03-20T00:51:46;10.10;;;7.00;;
2868;SDS011;1442;47.448;8.582;2023-03-20T00:54:13;6.68;;;5.93;;
2868;SDS011;1442;47.448;8.582;2023-03-20T00:56:43;8.63;;;6.75;;
2868;SDS011;1442;47.448;8.582;2023-03-20T00:59:12;7.32;;;5.63;;
2868;SDS011;1442;47.448;8.582;2023-03-20T01:01:40;6.75;;;5.03;;
2868;SDS011;1442;47.448;8.582;2023-03-20T01:04:08;10.18;;;6.22;;
2868;SDS011;1442;47.448;8.582;2023-03-20T01:06:37;16.58;;;9.60;;
2868;SDS011;1442;47.448;8.582;2023-03-20T01:09:04;18.95;;;9.82;;
2868;SDS011;1442;47.448;8.582;2023-03-20T01:11:31;16.75;;;9.25;;
2868;SDS011;1442;47.448;8.582;2023-03-20T01:14:00;11.75;;;7.88;;
2868;SDS011;1442;47.448;8.582;2023-03-20T01:16:27;14.20;;;6.85;;
2868;SDS011;1442;47.448;8.582;2023-03-20T01:18:55;9.55;;;6.70;;
2868;SDS011;1442;47.448;8.582;2023-03-20T01:21:22;9.98;;;6.43;;
2868;SDS011;1442;47.448;8.582;2023-03-20T01:23:49;13.38;;;5.47;;
2868;SDS011;1442;47.448;8.582;2023-03-20T01:26:21;8.98;;;4.40;;
2868;SDS011;1442;47.448;8.582;2023-03-20T01:28:48;7.72;;;4.50;;
2868;SDS011;1442;47.448;8.582;2023-03-20T01:31:17;8.40;;;4.32;;
2868;SDS011;1442;47.448;8.582;2023-03-20T01:33:44;6.25;;;4.40;;
2868;SDS011;1442;47.448;8.582;2023-03-20T01:36:12;8.52;;;4.22;;
2868;SDS011;1442;47.448;8.582;2023-03-20T01:38:40;6.90;;;4.00;;
2868;SDS011;1442;47.448;8.582;2023-03-20T01:41:09;5.90;;;4.38;;
2868;SDS011;1442;47.448;8.582;2023-03-20T01:43:37;6.30;;;3.50;;
2868;SDS011;1442;47.448;8.582;2023-03-20T01:46:14;4.10;;;3.20;;
2868;SDS011;1442;47.448;8.582;2023-03-20T01:48:58;4.80;;;3.13;;
2868;SDS011;1442;47.448;8.582;2023-03-20T01:51:26;3.88;;;3.35;;
2868;SDS011;1442;47.448;8.582;2023-03-20T01:53:54;5.03;;;3.55;;
2868;SDS011;1442;47.448;8.582;2023-03-20T01:56:23;3.58;;;3.10;;
2868;SDS011;1442;47.448;8.582;2023-03-20T01:58:52;5.13;;;3.67;;
2868;SDS011;1442;47.448;8.582;2023-03-20T02:01:22;5.05;;;4.25;;
2868;SDS011;1442;47.448;8.582;2023-03-20T02:03:50;5.75;;;4.30;;
2868;SDS011;1442;47.448;8.582;2023-03-20T02:06:19;5.68;;;4.20;;
2868;SDS011;1442;47.448;8.582;2023-03-20T02:08:48;6.60;;;4.97;;
2868;SDS011;1442;47.448;8.582;2023-03-20T02:11:16;5.88;;;4.68;;
2868;SDS011;1442;47.448;8.582;2023-03-20T02:13:44;7.75;;;4.90;;
2868;SDS011;1442;47.448;8.582;2023-03-20T02:16:12;7.03;;;5.20;;
2868;SDS011;1442;47.448;8.582;2023-03-20T02:18:40;6.78;;;5.32;;
2868;SDS011;1442;47.448;8.582;2023-03-20T02:21:25;5.85;;;5.07;;
2868;SDS011;1442;47.448;8.582;2023-03-20T02:24:21;7.63;;;5.47;;
2868;SDS011;1442;47.448;8.582;2023-03-20T02:26:56;7.15;;;5.38;;
2868;SDS011;1442;47.448;8.582;2023-03-20T02:29:38;7.65;;;5.55;;
2868;SDS011;1442;47.448;8.582;2023-03-20T02:35:04;8.75;;;5.45;;
2868;SDS011;1442;47.448;8.582;2023-03-20T02:37:43;6.78;;;5.15;;
2868;SDS011;1442;47.448;8.582;2023-03-20T02:40:14;5.95;;;4.72;;
2868;SDS011;1442;47.448;8.582;2023-03-20T02:42:43;6.43;;;5.50;;
2868;SDS011;1442;47.448;8.582;2023-03-20T02:45:13;6.30;;;4.60;;
2868;SDS011;1442;47.448;8.582;2023-03-20T02:47:46;3.75;;;3.15;;
2868;SDS011;1442;47.448;8.582;2023-03-20T02:50:15;5.93;;;3.43;;
2868;SDS011;1442;47.448;8.582;2023-03-20T02:52:47;4.32;;;3.20;;
2868;SDS011;1442;47.448;8.582;2023-03-20T02:55:16;5.32;;;3.80;;
2868;SDS011;1442;47.448;8.582;2023-03-20T02:57:49;4.07;;;3.53;;
2868;SDS011;1442;47.448;8.582;2023-03-20T03:00:19;10.00;;;4.13;;
2868;SDS011;1442;47.448;8.582;2023-03-20T03:02:50;6.15;;;4.18;;
2868;SDS011;1442;47.448;8.582;2023-03-20T03:05:21;6.35;;;4.07;;
2868;SDS011;1442;47.448;8.582;2023-03-20T03:07:51;4.97;;;3.75;;
2868;SDS011;1442;47.448;8.582;2023-03-20T03:10:22;6.50;;;3.92;;
2868;SDS011;1442;47.448;8.582;2023-03-20T03:12:53;7.35;;;4.32;;
2868;SDS011;1442;47.448;8.582;2023-03-20T03:15:24;8.10;;;4.20;;
2868;SDS011;1442;47.448;8.582;2023-03-20T03:17:53;5.07;;;3.85;;
2868;SDS011;1442;47.448;8.582;2023-03-20T03:20:22;7.68;;;3.95;;
2868;SDS011;1442;47.448;8.582;2023-03-20T03:22:52;6.32;;;3.80;;
2868;SDS011;1442;47.448;8.582;2023-03-20T03:25:20;4.00;;;3.30;;
2868;SDS011;1442;47.448;8.582;2023-03-20T03:27:50;3.65;;;3.05;;
2868;SDS011;1442;47.448;8.582;2023-03-20T03:30:22;4.43;;;3.28;;
2868;SDS011;1442;47.448;8.582;2023-03-20T03:32:52;4.75;;;3.33;;
2868;SDS011;1442;47.448;8.582;2023-03-20T03:35:21;4.25;;;3.22;;
2868;SDS011;1442;47.448;8.582;2023-03-20T03:37:49;5.85;;;3.88;;
2868;SDS011;1442;47.448;8.582;2023-03-20T03:40:23;4.72;;;4.03;;
2868;SDS011;1442;47.448;8.582;2023-03-20T03:42:54;5.95;;;4.18;;
2868;SDS011;1442;47.448;8.582;2023-03-20T03:45:23;4.95;;;3.50;;
2868;SDS011;1442;47.448;8.582;2023-03-20T03:47:55;5.60;;;3.83;;
2868;SDS011;1442;47.448;8.582;2023-03-20T03:50:24;5.82;;;4.13;;
2868;SDS011;1442;47.448;8.582;2023-03-20T03:52:54;4.60;;;3.03;;
2868;SDS011;1442;47.448;8.582;2023-03-20T03:55:25;4.97;;;3.53;;
2868;SDS011;1442;47.448;8.582;2023-03-20T03:57:55;6.55;;;3.58;;
2868;SDS011;1442;47.448;8.582;2023-03-20T04:00:23;6.47;;;3.65;;
2868;SDS011;1442;47.448;8.582;2023-03-20T04:02:52;5.05;;;3.15;;
2868;SDS011;1442;47.448;8.582;2023-03-20T04:05:20;6.43;;;3.95;;
2868;SDS011;1442;47.448;8.582;2023-03-20T04:07:51;4.57;;;3.28;;
2868;SDS011;1442;47.448;8.582;2023-03-20T04:10:18;4.75;;;3.65;;
2868;SDS011;1442;47.448;8.582;2023-03-20T04:12:47;4.97;;;3.70;;
2868;SDS011;1442;47.448;8.582;2023-03-20T04:15:14;6.78;;;3.25;;
2868;SDS011;1442;47.448;8.582;2023-03-20T04:17:42;5.68;;;3.10;;
2868;SDS011;1442;47.448;8.582;2023-03-20T04:20:10;4.90;;;3.40;;
2868;SDS011;1442;47.448;8.582;2023-03-20T04:22:37;4.38;;;3.30;;
2868;SDS011;1442;47.448;8.582;2023-03-20T04:25:05;5.20;;;3.13;;
2868;SDS011;1442;47.448;8.582;2023-03-20T04:27:33;3.85;;;3.05;;
2868;SDS011;1442;47.448;8.582;2023-03-20T04:30:01;5.07;;;2.88;;
2868;SDS011;1442;47.448;8.582;2023-03-20T04:32:28;4.53;;;3.00;;
2868;SDS011;1442;47.448;8.582;2023-03-20T04:34:56;5.22;;;3.20;;
2868;SDS011;1442;47.448;8.582;2023-03-20T04:37:23;5.68;;;2.90;;
2868;SDS011;1442;47.448;8.582;2023-03-20T04:39:50;6.75;;;3.20;;
2868;SDS011;1442;47.448;8.582;2023-03-20T04:42:17;7.03;;;3.40;;
2868;SDS011;1442;47.448;8.582;2023-03-20T04:44:44;5.00;;;2.95;;
2868;SDS011;1442;47.448;8.582;2023-03-20T04:47:13;4.13;;;3.20;;
2868;SDS011;1442;47.448;8.582;2023-03-20T04:49:40;4.90;;;2.70;;
2868;SDS011;1442;47.448;8.582;2023-03-20T04:52:08;4.25;;;2.72;;
2868;SDS011;1442;47.448;8.582;2023-03-20T04:54:35;6.30;;;3.40;;
2868;SDS011;1442;47.448;8.582;2023-03-20T04:57:02;4.68;;;2.88;;
2868;SDS011;1442;47.448;8.582;2023-03-20T04:59:29;8.43;;;3.65;;
2868;SDS011;1442;47.448;8.582;2023-03-20T05:01:56;4.50;;;2.80;;
2868;SDS011;1442;47.448;8.582;2023-03-20T05:04:25;5.75;;;2.72;;
2868;SDS011;1442;47.448;8.582;2023-03-20T05:06:52;3.53;;;3.05;;
2868;SDS011;1442;47.448;8.582;2023-03-20T05:09:19;5.22;;;3.30;;
2868;SDS011;1442;47.448;8.582;2023-03-20T05:11:46;4.80;;;3.35;;
2868;SDS011;1442;47.448;8.582;2023-03-20T05:14:14;4.95;;;3.45;;
2868;SDS011;1442;47.448;8.582;2023-03-20T05:16:41;7.57;;;3.45;;
2868;SDS011;1442;47.448;8.582;2023-03-20T05:19:08;4.70;;;3.35;;
2868;SDS011;1442;47.448;8.582;2023-03-20T05:21:36;3.38;;;2.72;;
2868;SDS011;1442;47.448;8.582;2023-03-20T05:24:04;5.95;;;3.10;;
2868;SDS011;1442;47.448;8.582;2023-03-20T05:26:31;4.95;;;3.15;;
2868;SDS011;1442;47.448;8.582;2023-03-20T05:28:58;6.43;;;3.42;;
2868;SDS011;1442;47.448;8.582;2023-03-20T05:31:25;5.10;;;2.85;;
2868;SDS011;1442;47.448;8.582;2023-03-20T05:33:52;4.07;;;2.90;;
2868;SDS011;1442;47.448;8.582;2023-03-20T05:36:20;4.38;;;2.65;;
2868;SDS011;1442;47.448;8.582;2023-03-20T05:38:48;3.85;;;2.63;;
2868;SDS011;1442;47.448;8.582;2023-03-20T05:41:15;3.85;;;2.60;;
2868;SDS011;1442;47.448;8.582;2023-03-20T05:43:42;8.05;;;2.55;;
2868;SDS011;1442;47.448;8.582;2023-03-20T05:46:10;5.30;;;3.00;;
2868;SDS011;1442;47.448;8.582;2023-03-20T05:48:37;2.83;;;2.25;;
2868;SDS011;1442;47.448;8.582;2023-03-20T05:51:04;3.85;;;2.55;;
2868;SDS011;1442;47.448;8.582;2023-03-20T05:53:31;4.20;;;2.30;;
2868;SDS011;1442;47.448;8.582;2023-03-20T05:56:00;3.22;;;2.50;;
2868;SDS011;1442;47.448;8.582;2023-03-20T05:58:27;2.63;;;2.10;;
2868;SDS011;1442;47.448;8.582;2023-03-20T06:00:55;4.45;;;2.17;;
2868;SDS011;1442;47.448;8.582;2023-03-20T06:03:22;4.38;;;2.75;;
2868;SDS011;1442;47.448;8.582;2023-03-20T06:05:50;4.20;;;2.67;;
2868;SDS011;1442;47.448;8.582;2023-03-20T06:08:18;2.67;;;2.13;;
2868;SDS011;1442;47.448;8.582;2023-03-20T06:10:45;2.92;;;2.22;;
2868;SDS011;1442;47.448;8.582;2023-03-20T06:13:14;3.10;;;2.22;;
2868;SDS011;1442;47.448;8.582;2023-03-20T06:15:41;3.55;;;2.53;;
2868;SDS011;1442;47.448;8.582;2023-03-20T06:18:08;4.15;;;2.42;;
2868;SDS011;1442;47.448;8.582;2023-03-20T06:20:35;6.88;;;2.90;;
2868;SDS011;1442;47.448;8.582;2023-03-20T06:23:02;4.20;;;2.75;;
2868;SDS011;1442;47.448;8.582;2023-03-20T06:25:30;3.30;;;2.80;;
2868;SDS011;1442;47.448;8.582;2023-03-20T06:27:57;3.83;;;2.47;;
2868;SDS011;1442;47.448;8.582;2023-03-20T06:30:25;5.88;;;2.55;;
2868;SDS011;1442;47.448;8.582;2023-03-20T06:32:53;1.95;;;1.70;;
2868;SDS011;1442;47.448;8.582;2023-03-20T06:35:20;2.85;;;1.92;;
2868;SDS011;1442;47.448;8.582;2023-03-20T06:37:47;2.60;;;1.90;;
2868;SDS011;1442;47.448;8.582;2023-03-20T06:40:14;3.63;;;1.98;;
2868;SDS011;1442;47.448;8.582;2023-03-20T06:42:42;3.63;;;2.20;;
2868;SDS011;1442;47.448;8.582;2023-03-20T06:45:09;6.07;;;2.03;;
2868;SDS011;1442;47.448;8.582;2023-03-20T06:47:38;2.60;;;1.80;;
2868;SDS011;1442;47.448;8.582;2023-03-20T06:50:06;3.08;;;2.17;;
2868;SDS011;1442;47.448;8.582;2023-03-20T06:52:33;4.82;;;2.03;;
2868;SDS011;1442;47.448;8.582;2023-03-20T06:55:00;3.83;;;2.90;;
2868;SDS011;1442;47.448;8.582;2023-03-20T06:57:28;3.97;;;2.67;;
2868;SDS011;1442;47.448;8.582;2023-03-20T06:59:55;4.13;;;3.20;;
2868;SDS011;1442;47.448;8.582;2023-03-20T07:02:22;3.97;;;3.50;;
2868;SDS011;1442;47.448;8.582;2023-03-20T07:04:50;3.95;;;3.10;;
2868;SDS011;1442;47.448;8.582;2023-03-20T07:07:18;8.23;;;3.70;;
2868;SDS011;1442;47.448;8.582;2023-03-20T07:09:45;12.43;;;2.85;;
2868;SDS011;1442;47.448;8.582;2023-03-20T07:12:13;7.43;;;3.15;;
2868;SDS011;1442;47.448;8.582;2023-03-20T07:14:40;8.63;;;3.47;;
2868;SDS011;1442;47.448;8.582;2023-03-20T07:17:07;7.85;;;3.83;;
2868;SDS011;1442;47.448;8.582;2023-03-20T07:19:35;4.97;;;3.22;;
2868;SDS011;1442;47.448;8.582;2023-03-20T07:22:04;3.25;;;2.85;;
2868;SDS011;1442;47.448;8.582;2023-03-20T07:24:31;8.15;;;3.15;;
2868;SDS011;1442;47.448;8.582;2023-03-20T07:26:59;4.18;;;3.78;;
2868;SDS011;1442;47.448;8.582;2023-03-20T07:29:26;4.25;;;3.22;;
2868;SDS011;1442;47.448;8.582;2023-03-20T07:31:53;8.73;;;3.22;;
2868;SDS011;1442;47.448;8.582;2023-03-20T07:34:21;4.03;;;2.80;;
2868;SDS011;1442;47.448;8.582;2023-03-20T07:36:48;3.42;;;3.10;;
2868;SDS011;1442;47.448;8.582;2023-03-20T07:39:16;3.88;;;2.90;;
2868;SDS011;1442;47.448;8.582;2023-03-20T07:41:43;4.88;;;3.55;;
2868;SDS011;1442;47.448;8.582;2023-03-20T07:44:10;3.95;;;3.40;;
2868;SDS011;1442;47.448;8.582;2023-03-20T07:46:38;3.30;;;3.00;;
2868;SDS011;1442;47.448;8.582;2023-03-20T07:49:06;2.92;;;2.60;;
2868;SDS011;1442;47.448;8.582;2023-03-20T07:51:33;2.97;;;2.47;;
2868;SDS011;1442;47.448;8.582;2023-03-20T07:54:00;4.60;;;3.05;;
2868;SDS011;1442;47.448;8.582;2023-03-20T07:56:29;3.83;;;2.90;;
2868;SDS011;1442;47.448;8.582;2023-03-20T07:58:56;2.70;;;2.50;;
2868;SDS011;1442;47.448;8.582;2023-03-20T08:01:23;2.55;;;2.30;;
2868;SDS011;1442;47.448;8.582;2023-03-20T08:03:51;2.35;;;2.15;;
2868;SDS011;1442;47.448;8.582;2023-03-20T08:06:18;3.35;;;2.72;;
2868;SDS011;1442;47.448;8.582;2023-03-20T08:08:45;3.97;;;2.90;;
2868;SDS011;1442;47.448;8.582;2023-03-20T08:11:15;4.50;;;2.88;;
2868;SDS011;1442;47.448;8.582;2023-03-20T08:13:44;4.35;;;2.92;;
2868;SDS011;1442;47.448;8.582;2023-03-20T08:16:12;4.38;;;2.85;;
2868;SDS011;1442;47.448;8.582;2023-03-20T08:18:39;4.93;;;2.63;;
2868;SDS011;1442;47.448;8.582;2023-03-20T08:21:07;5.60;;;2.70;;
2868;SDS011;1442;47.448;8.582;2023-03-20T08:23:35;6.90;;;3.40;;
2868;SDS011;1442;47.448;8.582;2023-03-20T08:26:02;3.45;;;2.83;;
2868;SDS011;1442;47.448;8.582;2023-03-20T08:28:29;5.03;;;2.78;;
2868;SDS011;1442;47.448;8.582;2023-03-20T08:30:57;8.05;;;3.97;;
2868;SDS011;1442;47.448;8.582;2023-03-20T08:33:24;4.80;;;3.42;;
2868;SDS011;1442;47.448;8.582;2023-03-20T08:35:55;4.93;;;3.65;;
2868;SDS011;1442;47.448;8.582;2023-03-20T08:38:22;4.10;;;3.10;;
2868;SDS011;1442;47.448;8.582;2023-03-20T08:40:50;5.07;;;3.15;;
2868;SDS011;1442;47.448;8.582;2023-03-20T08:43:18;4.00;;;2.97;;
2868;SDS011;1442;47.448;8.582;2023-03-20T08:45:46;2.65;;;2.45;;
2868;SDS011;1442;47.448;8.582;2023-03-20T08:48:14;4.88;;;2.72;;
2868;SDS011;1442;47.448;8.582;2023-03-20T08:50:41;7.07;;;2.97;;
2868;SDS011;1442;47.448;8.582;2023-03-20T08:53:09;6.07;;;2.80;;
2868;SDS011;1442;47.448;8.582;2023-03-20T08:55:36;12.35;;;3.45;;
2868;SDS011;1442;47.448;8.582;2023-03-20T08:58:03;8.85;;;3.33;;
2868;SDS011;1442;47.448;8.582;2023-03-20T09:00:30;5.00;;;3.90;;
2868;SDS011;1442;47.448;8.582;2023-03-20T09:02:58;6.90;;;3.00;;
2868;SDS011;1442;47.448;8.582;2023-03-20T09:05:26;3.42;;;2.78;;
2868;SDS011;1442;47.448;8.582;2023-03-20T09:07:53;3.35;;;2.40;;
2868;SDS011;1442;47.448;8.582;2023-03-20T09:10:20;3.00;;;2.35;;
2868;SDS011;1442;47.448;8.582;2023-03-20T09:12:47;3.60;;;2.05;;
2868;SDS011;1442;47.448;8.582;2023-03-20T09:15:15;5.72;;;2.38;;
2868;SDS011;1442;47.448;8.582;2023-03-20T09:17:42;3.78;;;2.38;;
2868;SDS011;1442;47.448;8.582;2023-03-20T09:20:09;4.68;;;2.03;;
2868;SDS011;1442;47.448;8.582;2023-03-20T09:22:38;3.35;;;1.70;;
2868;SDS011;1442;47.448;8.582;2023-03-20T09:25:08;2.83;;;2.10;;
2868;SDS011;1442;47.448;8.582;2023-03-20T09:27:35;4.03;;;2.10;;
2868;SDS011;1442;47.448;8.582;2023-03-20T09:30:02;2.05;;;1.85;;
2868;SDS011;1442;47.448;8.582;2023-03-20T09:32:30;5.00;;;1.95;;
2868;SDS011;1442;47.448;8.582;2023-03-20T09:34:57;3.10;;;2.15;;
2868;SDS011;1442;47.448;8.582;2023-03-20T09:37:24;2.40;;;2.10;;
2868;SDS011;1442;47.448;8.582;2023-03-20T09:39:53;4.30;;;2.00;;
2868;SDS011;1442;47.448;8.582;2023-03-20T09:42:24;2.65;;;2.10;;
2868;SDS011;1442;47.448;8.582;2023-03-20T09:44:56;2.85;;;1.95;;
2868;SDS011;1442;47.448;8.582;2023-03-20T09:47:29;3.75;;;2.17;;
2868;SDS011;1442;47.448;8.582;2023-03-20T09:50:02;2.13;;;1.60;;
2868;SDS011;1442;47.448;8.582;2023-03-20T09:52:34;1.83;;;1.73;;
2868;SDS011;1442;47.448;8.582;2023-03-20T09:55:04;1.52;;;1.42;;
2868;SDS011;1442;47.448;8.582;2023-03-20T09:57:34;2.85;;;1.55;;
2868;SDS011;1442;47.448;8.582;2023-03-20T10:00:05;4.70;;;1.60;;
2868;SDS011;1442;47.448;8.582;2023-03-20T10:02:37;1.70;;;1.60;;
2868;SDS011;1442;47.448;8.582;2023-03-20T10:05:10;2.85;;;1.52;;
2868;SDS011;1442;47.448;8.582;2023-03-20T10:07:38;2.85;;;1.63;;
2868;SDS011;1442;47.448;8.582;2023-03-20T10:10:08;4.80;;;1.83;;
2868;SDS011;1442;47.448;8.582;2023-03-20T10:12:46;2.03;;;1.23;;
2868;SDS011;1442;47.448;8.582;2023-03-20T10:15:16;1.52;;;0.85;;
2868;SDS011;1442;47.448;8.582;2023-03-20T10:17:48;1.67;;;1.55;;
2868;SDS011;1442;47.448;8.582;2023-03-20T10:20:21;1.67;;;1.27;;
2868;SDS011;1442;47.448;8.582;2023-03-20T10:25:25;1.75;;;1.50;;
2868;SDS011;1442;47.448;8.582;2023-03-20T10:27:55;1.42;;;1.33;;
2868;SDS011;1442;47.448;8.582;2023-03-20T10:30:35;2.70;;;1.05;;
2868;SDS011;1442;47.448;8.582;2023-03-20T10:35:35;0.70;;;0.70;;
2868;SDS011;1442;47.448;8.582;2023-03-20T10:38:08;1.83;;;1.10;;
2868;SDS011;1442;47.448;8.582;2023-03-20T10:40:39;1.67;;;1.38;;
2868;SDS011;1442;47.448;8.582;2023-03-20T10:43:10;2.92;;;0.90;;
2868;SDS011;1442;47.448;8.582;2023-03-20T10:45:43;2.53;;;1.15;;
2868;SDS011;1442;47.448;8.582;2023-03-20T10:48:14;3.00;;;1.27;;
2868;SDS011;1442;47.448;8.582;2023-03-20T10:50:43;1.50;;;1.30;;
2868;SDS011;1442;47.448;8.582;2023-03-20T10:53:17;2.30;;;1.58;;
2868;SDS011;1442;47.448;8.582;2023-03-20T10:55:48;1.40;;;1.10;;
2868;SDS011;1442;47.448;8.582;2023-03-20T10:58:16;1.55;;;1.33;;
2868;SDS011;1442;47.448;8.582;2023-03-20T11:00:45;2.72;;;1.67;;
2868;SDS011;1442;47.448;8.582;2023-03-20T11:03:16;1.30;;;1.20;;
2868;SDS011;1442;47.448;8.582;2023-03-20T11:05:46;3.75;;;1.38;;
2868;SDS011;1442;47.448;8.582;2023-03-20T11:08:15;1.83;;;1.30;;
2868;SDS011;1442;47.448;8.582;2023-03-20T11:10:42;4.32;;;1.20;;
2868;SDS011;1442;47.448;8.582;2023-03-20T11:13:15;1.33;;;1.13;;
2868;SDS011;1442;47.448;8.582;2023-03-20T11:15:43;2.10;;;1.10;;
2868;SDS011;1442;47.448;8.582;2023-03-20T11:18:11;2.90;;;1.17;;
2868;SDS011;1442;47.448;8.582;2023-03-20T11:20:48;1.58;;;1.08;;
2868;SDS011;1442;47.448;8.582;2023-03-20T11:23:16;3.92;;;1.30;;
2868;SDS011;1442;47.448;8.582;2023-03-20T11:25:45;2.78;;;1.02;;
2868;SDS011;1442;47.448;8.582;2023-03-20T11:31:04;1.45;;;0.95;;
2868;SDS011;1442;47.448;8.582;2023-03-20T11:33:32;1.38;;;0.80;;
2868;SDS011;1442;47.448;8.582;2023-03-20T11:36:04;1.55;;;1.10;;
2868;SDS011;1442;47.448;8.582;2023-03-20T11:38:38;1.65;;;0.93;;
2868;SDS011;1442;47.448;8.582;2023-03-20T11:41:10;1.00;;;1.00;;
2868;SDS011;1442;47.448;8.582;2023-03-20T11:43:42;1.23;;;1.10;;
2868;SDS011;1442;47.448;8.582;2023-03-20T11:46:11;1.92;;;1.13;;
2868;SDS011;1442;47.448;8.582;2023-03-20T11:48:39;1.60;;;1.08;;
2868;SDS011;1442;47.448;8.582;2023-03-20T11:51:07;1.55;;;1.05;;
2868;SDS011;1442;47.448;8.582;2023-03-20T11:53:35;1.92;;;1.30;;
2868;SDS011;1442;47.448;8.582;2023-03-20T11:56:06;1.10;;;0.88;;
2868;SDS011;1442;47.448;8.582;2023-03-20T11:58:35;4.05;;;0.80;;
2868;SDS011;1442;47.448;8.582;2023-03-20T12:01:03;1.52;;;1.02;;
2868;SDS011;1442;47.448;8.582;2023-03-20T12:03:39;0.95;;;0.77;;
2868;SDS011;1442;47.448;8.582;2023-03-20T12:06:07;2.90;;;1.02;;
2868;SDS011;1442;47.448;8.582;2023-03-20T12:08:35;3.53;;;0.98;;
2868;SDS011;1442;47.448;8.582;2023-03-20T12:11:05;1.60;;;1.05;;
2868;SDS011;1442;47.448;8.582;2023-03-20T12:13:36;0.82;;;0.80;;
2868;SDS011;1442;47.448;8.582;2023-03-20T12:16:06;1.60;;;1.00;;
2868;SDS011;1442;47.448;8.582;2023-03-20T12:18:39;3.65;;;0.80;;
2868;SDS011;1442;47.448;8.582;2023-03-20T12:21:09;2.95;;;0.63;;
2868;SDS011;1442;47.448;8.582;2023-03-20T12:23:39;7.00;;;1.10;;
2868;SDS011;1442;47.448;8.582;2023-03-20T12:26:10;2.95;;;1.00;;
2868;SDS011;1442;47.448;8.582;2023-03-20T12:28:39;4.32;;;0.75;;
2868;SDS011;1442;47.448;8.582;2023-03-20T12:31:12;2.20;;;1.05;;
2868;SDS011;1442;47.448;8.582;2023-03-20T12:33:44;1.52;;;1.10;;
2868;SDS011;1442;47.448;8.582;2023-03-20T12:36:16;1.75;;;1.15;;
2868;SDS011;1442;47.448;8.582;2023-03-20T12:38:43;1.83;;;0.80;;
2868;SDS011;1442;47.448;8.582;2023-03-20T12:41:12;3.20;;;0.70;;
2868;SDS011;1442;47.448;8.582;2023-03-20T12:43:48;3.05;;;0.90;;
2868;SDS011;1442;47.448;8.582;2023-03-20T12:46:22;0.75;;;0.75;;
2868;SDS011;1442;47.448;8.582;2023-03-20T12:49:00;1.10;;;0.70;;
2868;SDS011;1442;47.448;8.582;2023-03-20T12:51:34;1.70;;;0.80;;
2868;SDS011;1442;47.448;8.582;2023-03-20T12:54:08;1.10;;;0.95;;
2868;SDS011;1442;47.448;8.582;2023-03-20T12:56:44;0.60;;;0.60;;
2868;SDS011;1442;47.448;8.582;2023-03-20T12:59:17;1.15;;;0.82;;
2868;SDS011;1442;47.448;8.582;2023-03-20T13:01:49;0.70;;;0.60;;
2868;SDS011;1442;47.448;8.582;2023-03-20T13:04:29;1.52;;;1.35;;
2868;SDS011;1442;47.448;8.582;2023-03-20T13:07:11;3.03;;;0.70;;
2868;SDS011;1442;47.448;8.582;2023-03-20T13:09:53;1.20;;;0.93;;
2868;SDS011;1442;47.448;8.582;2023-03-20T13:12:27;1.15;;;0.73;;
2868;SDS011;1442;47.448;8.582;2023-03-20T13:14:58;0.73;;;0.73;;
2868;SDS011;1442;47.448;8.582;2023-03-20T13:17:30;1.55;;;0.65;;
2868;SDS011;1442;47.448;8.582;2023-03-20T13:20:05;2.80;;;0.95;;
2868;SDS011;1442;47.448;8.582;2023-03-20T13:22:35;0.80;;;0.80;;
2868;SDS011;1442;47.448;8.582;2023-03-20T13:25:22;0.98;;;0.93;;
2868;SDS011;1442;47.448;8.582;2023-03-20T13:27:52;0.73;;;0.73;;
2868;SDS011;1442;47.448;8.582;2023-03-20T13:30:23;2.15;;;1.08;;
2868;SDS011;1442;47.448;8.582;2023-03-20T13:32:54;2.10;;;1.00;;
2868;SDS011;1442;47.448;8.582;2023-03-20T13:35:41;0.88;;;0.73;;
2868;SDS011;1442;47.448;8.582;2023-03-20T13:38:11;2.00;;;0.88;;
2868;SDS011;1442;47.448;8.582;2023-03-20T13:40:40;2.38;;;0.77;;
2868;SDS011;1442;47.448;8.582;2023-03-20T13:43:11;0.80;;;0.80;;
2868;SDS011;1442;47.448;8.582;2023-03-20T13:45:40;1.00;;;0.90;;
2868;SDS011;1442;47.448;8.582;2023-03-20T13:48:11;2.28;;;0.90;;
2868;SDS011;1442;47.448;8.582;2023-03-20T13:50:45;3.08;;;0.93;;
2868;SDS011;1442;47.448;8.582;2023-03-20T13:53:19;1.92;;;1.00;;
2868;SDS011;1442;47.448;8.582;2023-03-20T13:55:50;1.48;;;0.60;;
2868;SDS011;1442;47.448;8.582;2023-03-20T13:58:22;1.23;;;0.88;;
2868;SDS011;1442;47.448;8.582;2023-03-20T14:00:54;2.88;;;0.90;;
2868;SDS011;1442;47.448;8.582;2023-03-20T14:03:26;0.73;;;0.63;;
2868;SDS011;1442;47.448;8.582;2023-03-20T14:05:56;2.28;;;0.50;;
2868;SDS011;1442;47.448;8.582;2023-03-20T14:08:29;0.52;;;0.47;;
2868;SDS011;1442;47.448;8.582;2023-03-20T14:11:04;0.60;;;0.60;;
2868;SDS011;1442;47.448;8.582;2023-03-20T14:13:32;0.50;;;0.50;;
2868;SDS011;1442;47.448;8.582;2023-03-20T14:16:00;0.68;;;0.68;;
2868;SDS011;1442;47.448;8.582;2023-03-20T14:18:29;0.50;;;0.50;;
2868;SDS011;1442;47.448;8.582;2023-03-20T14:20:58;0.52;;;0.52;;
2868;SDS011;1442;47.448;8.582;2023-03-20T14:23:30;0.60;;;0.60;;
2868;SDS011;1442;47.448;8.582;2023-03-20T14:25:58;2.28;;;0.80;;
2868;SDS011;1442;47.448;8.582;2023-03-20T14:28:27;1.35;;;0.50;;
2868;SDS011;1442;47.448;8.582;2023-03-20T14:31:10;1.25;;;0.70;;
2868;SDS011;1442;47.448;8.582;2023-03-20T14:33:41;1.20;;;0.75;;
2868;SDS011;1442;47.448;8.582;2023-03-20T14:36:11;1.73;;;0.80;;
2868;SDS011;1442;47.448;8.582;2023-03-20T14:38:43;3.10;;;0.70;;
2868;SDS011;1442;47.448;8.582;2023-03-20T14:41:14;0.50;;;0.50;;
2868;SDS011;1442;47.448;8.582;2023-03-20T14:43:50;4.20;;;0.93;;
2868;SDS011;1442;47.448;8.582;2023-03-20T14:46:23;1.05;;;0.93;;
2868;SDS011;1442;47.448;8.582;2023-03-20T14:48:52;1.02;;;0.73;;
2868;SDS011;1442;47.448;8.582;2023-03-20T14:51:23;2.78;;;1.13;;
2868;SDS011;1442;47.448;8.582;2023-03-20T14:53:54;1.55;;;0.63;;
2868;SDS011;1442;47.448;8.582;2023-03-20T14:56:26;0.70;;;0.70;;
2868;SDS011;1442;47.448;8.582;2023-03-20T14:58:54;1.08;;;0.60;;
2868;SDS011;1442;47.448;8.582;2023-03-20T15:01:23;0.70;;;0.70;;
2868;SDS011;1442;47.448;8.582;2023-03-20T15:03:51;2.15;;;0.80;;
2868;SDS011;1442;47.448;8.582;2023-03-20T15:06:20;0.90;;;0.65;;
2868;SDS011;1442;47.448;8.582;2023-03-20T15:08:49;1.15;;;0.88;;
2868;SDS011;1442;47.448;8.582;2023-03-20T15:11:17;1.13;;;0.75;;
2868;SDS011;1442;47.448;8.582;2023-03-20T15:13:46;0.75;;;0.50;;
2868;SDS011;1442;47.448;8.582;2023-03-20T15:16:14;2.50;;;0.70;;
2868;SDS011;1442;47.448;8.582;2023-03-20T15:18:42;1.23;;;0.60;;
2868;SDS011;1442;47.448;8.582;2023-03-20T15:21:13;0.50;;;0.50;;
2868;SDS011;1442;47.448;8.582;2023-03-20T15:23:41;0.95;;;0.77;;
2868;SDS011;1442;47.448;8.582;2023-03-20T15:26:10;1.30;;;0.68;;
2868;SDS011;1442;47.448;8.582;2023-03-20T15:28:37;0.80;;;0.70;;
2868;SDS011;1442;47.448;8.582;2023-03-20T15:31:04;0.60;;;0.60;;
2868;SDS011;1442;47.448;8.582;2023-03-20T15:33:33;1.08;;;0.50;;
2868;SDS011;1442;47.448;8.582;2023-03-20T15:36:07;5.03;;;0.98;;
2868;SDS011;1442;47.448;8.582;2023-03-20T15:38:35;0.55;;;0.45;;
2868;SDS011;1442;47.448;8.582;2023-03-20T15:41:03;0.68;;;0.68;;